Time;durP1;ratioP1;P1;durP2;ratioP2;P2;SDS_P1;SDS_P2;PMS_P1;PMS_P2;Temp;Humidity;BMP_temperature;BMP_pressure;BME280_temperature;BME280_humidity;BME280_pressure;Samples;Min_cycle;Max_cycle;Signal;HPM_P1;HPM_P2
2021/01/14 00:02:26;;;;;;;0.20;0.20;;;19.00;54.70;;;;;;5070074;28;20060;-59
2021/01/14 00:04:53;;;;;;;0.52;0.13;;;19.00;54.60;;;;;;5087943;28;20160;-59
2021/01/14 00:07:21;;;;;;;1.10;0.13;;;18.90;54.60;;;;;;5087930;28;20622;-59
2021/01/14 00:09:48;;;;;;;2.80;0.40;;;19.00;54.60;;;;;;5087775;28;20048;-59
2021/01/14 00:12:14;;;;;;;0.20;0.20;;;19.00;54.60;;;;;;5083021;28;20087;-59
2021/01/14 00:14:41;;;;;;;1.63;0.43;;;19.00;54.70;;;;;;5087147;28;20522;-59
2021/01/14 00:17:08;;;;;;;2.20;0.40;;;19.00;54.70;;;;;;5087739;28;20052;-58
2021/01/14 00:19:34;;;;;;;0.70;0.30;;;19.00;54.60;;;;;;5089079;28;20076;-59
2021/01/14 00:22:01;;;;;;;1.17;0.40;;;18.90;54.60;;;;;;5087433;28;20044;-60
2021/01/14 00:24:29;;;;;;;0.35;0.35;;;19.00;54.60;;;;;;5086947;28;20039;-59
2021/01/14 00:26:56;;;;;;;0.20;0.20;;;19.00;54.60;;;;;;5087302;28;20122;-59
2021/01/14 00:29:22;;;;;;;0.60;0.20;;;19.00;54.60;;;;;;5087165;28;20067;-60
2021/01/14 00:31:49;;;;;;;3.13;0.10;;;19.00;54.50;;;;;;5089111;28;20280;-59
2021/01/14 00:34:16;;;;;;;1.88;0.30;;;19.00;54.50;;;;;;5086183;28;20044;-61
2021/01/14 00:39:29;;;;;;;1.52;0.28;;;19.00;54.60;;;;;;5084485;28;20044;-60
2021/01/14 00:41:57;;;;;;;1.75;0.50;;;19.00;54.60;;;;;;5086549;28;20131;-60
2021/01/14 00:44:23;;;;;;;2.50;0.20;;;18.90;54.90;;;;;;5088916;28;20056;-59
2021/01/14 00:46:55;;;;;;;1.08;0.25;;;18.90;54.50;;;;;;5092752;28;20431;-59
2021/01/14 00:49:22;;;;;;;0.85;0.20;;;19.00;54.40;;;;;;5090534;28;20889;-60
2021/01/14 00:51:50;;;;;;;51.95;25.75;;;18.90;54.40;;;;;;5090315;28;20128;-59
2021/01/14 00:54:16;;;;;;;41.53;19.58;;;18.90;54.40;;;;;;5091469;28;20048;-59
2021/01/14 00:56:44;;;;;;;25.23;15.18;;;18.90;54.40;;;;;;5090011;28;20055;-59
2021/01/14 00:59:12;;;;;;;26.85;13.63;;;19.00;54.40;;;;;;5089421;28;20074;-59
2021/01/14 01:01:41;;;;;;;24.25;14.60;;;18.90;54.30;;;;;;5092523;28;20427;-59
2021/01/14 01:04:08;;;;;;;21.50;11.85;;;18.90;54.20;;;;;;5090542;28;20036;-60
2021/01/14 01:06:36;;;;;;;17.83;11.95;;;18.90;54.10;;;;;;5089987;28;20514;-59
2021/01/14 01:09:04;;;;;;;19.58;10.40;;;18.90;54.20;;;;;;5089900;28;20048;-60
2021/01/14 01:11:31;;;;;;;16.77;9.45;;;18.90;54.10;;;;;;5090743;28;20127;-60
2021/01/14 01:13:58;;;;;;;14.05;8.18;;;18.90;54.10;;;;;;5091331;28;20069;-61
2021/01/14 01:16:25;;;;;;;14.93;9.10;;;18.90;54.10;;;;;;5088538;28;20963;-60
2021/01/14 01:18:51;;;;;;;11.52;7.15;;;18.90;54.10;;;;;;5086521;28;20047;-60
2021/01/14 01:21:18;;;;;;;11.88;7.03;;;18.90;54.00;;;;;;5088462;28;20105;-59
2021/01/14 01:23:45;;;;;;;11.25;6.38;;;18.90;54.00;;;;;;5087621;28;20109;-60
2021/01/14 01:26:15;;;;;;;11.60;6.70;;;18.90;53.90;;;;;;5089555;28;20068;-60
2021/01/14 01:28:42;;;;;;;7.90;4.13;;;18.90;53.80;;;;;;5091860;28;20420;-60
2021/01/14 01:31:10;;;;;;;12.85;4.80;;;18.90;53.80;;;;;;5079972;28;20086;-58
2021/01/14 01:33:37;;;;;;;8.70;4.07;;;18.90;53.90;;;;;;5088009;28;20086;-60
2021/01/14 01:36:05;;;;;;;8.30;4.00;;;18.90;53.90;;;;;;5086333;28;20064;-59
2021/01/14 01:38:31;;;;;;;7.63;4.00;;;18.90;53.90;;;;;;5087110;28;20125;-59
2021/01/14 01:40:59;;;;;;;7.13;3.33;;;18.90;53.90;;;;;;5090260;28;20067;-61
2021/01/14 01:43:26;;;;;;;5.20;3.28;;;18.90;53.90;;;;;;5087534;28;20495;-60
2021/01/14 01:45:54;;;;;;;4.72;2.38;;;18.90;53.80;;;;;;5087670;28;20878;-59
2021/01/14 01:48:23;;;;;;;7.00;2.83;;;18.90;53.80;;;;;;5087292;28;20117;-59
2021/01/14 01:50:51;;;;;;;5.72;2.88;;;18.90;53.80;;;;;;5088421;28;20520;-59
2021/01/14 01:53:17;;;;;;;3.13;1.65;;;18.90;53.80;;;;;;5087810;28;20139;-58
2021/01/14 01:55:45;;;;;;;3.22;2.40;;;18.90;53.80;;;;;;5088649;28;20500;-59
2021/01/14 01:58:12;;;;;;;4.28;2.05;;;18.90;53.80;;;;;;5087557;28;20048;-59
2021/01/14 02:00:41;;;;;;;6.20;1.67;;;18.90;53.80;;;;;;5086606;28;20483;-59
2021/01/14 02:03:12;;;;;;;3.45;1.52;;;18.90;53.80;;;;;;5087045;28;20051;-58
2021/01/14 02:05:39;;;;;;;2.80;0.98;;;18.90;53.80;;;;;;5087699;28;20331;-59
2021/01/14 02:08:13;;;;;;;2.55;1.67;;;18.90;53.80;;;;;;5090061;28;20043;-60
2021/01/14 02:10:46;;;;;;;2.00;1.35;;;18.90;53.80;;;;;;5089122;28;20040;-59
2021/01/14 02:13:20;;;;;;;1.77;0.32;;;18.90;53.90;;;;;;5087590;28;20040;-60
2021/01/14 02:15:49;;;;;;;2.40;0.90;;;18.90;53.80;;;;;;5087380;28;20067;-60
2021/01/14 02:18:17;;;;;;;3.80;0.82;;;18.90;53.90;;;;;;5085439;28;20082;-60
2021/01/14 02:20:49;;;;;;;2.15;0.35;;;18.90;53.90;;;;;;5087682;28;20070;-60
2021/01/14 02:23:22;;;;;;;1.08;0.40;;;18.90;53.90;;;;;;5086025;28;20079;-60
2021/01/14 02:26:02;;;;;;;1.75;0.47;;;18.90;53.80;;;;;;5088236;28;20047;-60
2021/01/14 02:28:29;;;;;;;2.47;0.40;;;18.90;53.80;;;;;;5087334;28;20051;-60
2021/01/14 02:30:59;;;;;;;1.85;0.30;;;18.90;53.80;;;;;;5086848;28;20044;-61
2021/01/14 02:33:26;;;;;;;0.73;0.15;;;18.90;54.00;;;;;;5084634;28;20048;-61
2021/01/14 02:35:52;;;;;;;0.50;0.20;;;18.90;54.00;;;;;;5085786;28;20146;-61
2021/01/14 02:38:19;;;;;;;2.08;0.30;;;18.90;54.00;;;;;;5088013;28;20474;-61
2021/01/14 02:40:45;;;;;;;1.23;0.60;;;18.90;53.90;;;;;;5089751;28;20244;-58
2021/01/14 02:43:13;;;;;;;0.63;0.22;;;18.80;53.90;;;;;;5085510;28;20147;-59
2021/01/14 02:45:39;;;;;;;1.67;0.38;;;18.90;53.90;;;;;;5086348;28;20055;-59
2021/01/14 02:48:10;;;;;;;0.63;0.20;;;18.80;53.90;;;;;;5086149;28;20044;-59
2021/01/14 02:50:39;;;;;;;0.77;0.20;;;18.90;53.90;;;;;;5086049;28;20094;-59
2021/01/14 02:53:07;;;;;;;0.63;0.20;;;18.80;53.80;;;;;;5088606;28;20090;-60
2021/01/14 02:55:34;;;;;;;0.13;0.10;;;18.90;53.80;;;;;;5088136;28;20063;-59
2021/01/14 02:58:01;;;;;;;1.45;0.20;;;18.80;53.70;;;;;;5087177;28;20056;-60
2021/01/14 03:00:28;;;;;;;1.20;0.20;;;18.80;53.70;;;;;;5085526;28;20455;-60
2021/01/14 03:02:55;;;;;;;1.52;0.10;;;18.90;53.80;;;;;;5088423;28;20047;-60
2021/01/14 03:05:22;;;;;;;0.50;0.10;;;18.80;53.70;;;;;;5088518;28;20089;-59
2021/01/14 03:07:48;;;;;;;1.45;0.10;;;18.80;53.70;;;;;;5089266;28;20048;-59
2021/01/14 03:10:15;;;;;;;1.65;0.10;;;18.80;53.60;;;;;;5088760;28;20097;-60
2021/01/14 03:12:41;;;;;;;0.55;0.10;;;18.80;53.60;;;;;;5087784;28;20044;-60
2021/01/14 03:15:09;;;;;;;0.10;0.10;;;18.80;54.20;;;;;;5088151;28;20064;-59
2021/01/14 03:17:37;;;;;;;0.50;0.05;;;18.80;53.70;;;;;;5088326;28;20109;-60
2021/01/14 03:20:08;;;;;;;1.98;0.10;;;18.80;53.70;;;;;;5088095;28;20120;-59
2021/01/14 03:22:39;;;;;;;0.50;0.40;;;18.80;53.70;;;;;;5089521;28;20044;-60
2021/01/14 03:25:07;;;;;;;1.70;0.10;;;18.80;53.70;;;;;;5083666;28;20040;-57
2021/01/14 03:27:38;;;;;;;0.35;0.10;;;18.80;53.70;;;;;;5087378;28;20471;-59
2021/01/14 03:30:06;;;;;;;0.93;0.10;;;18.80;53.70;;;;;;5088016;28;20048;-59
2021/01/14 03:32:32;;;;;;;2.83;0.10;;;18.80;53.70;;;;;;5088270;28;20595;-59
2021/01/14 03:35:00;;;;;;;1.33;0.10;;;18.80;53.60;;;;;;5088536;28;20086;-60
2021/01/14 03:37:27;;;;;;;0.90;0.47;;;18.80;53.70;;;;;;5088927;28;20415;-61
2021/01/14 03:39:53;;;;;;;0.10;0.08;;;18.80;53.60;;;;;;5088018;28;20055;-60
2021/01/14 03:42:20;;;;;;;0.22;0.20;;;18.80;53.60;;;;;;5087843;28;20051;-60
2021/01/14 03:44:47;;;;;;;1.02;0.00;;;18.80;53.60;;;;;;5087750;28;20044;-59
2021/01/14 03:47:14;;;;;;;0.45;0.40;;;18.80;53.60;;;;;;5088066;28;20048;-60
2021/01/14 03:49:40;;;;;;;0.30;0.10;;;18.80;53.60;;;;;;5089394;28;20052;-60
2021/01/14 03:52:10;;;;;;;0.55;0.00;;;18.80;53.60;;;;;;5088143;28;20065;-60
2021/01/14 03:54:37;;;;;;;0.10;0.00;;;18.80;53.60;;;;;;5088166;28;20100;-59
2021/01/14 03:57:04;;;;;;;5.97;0.10;;;18.80;53.60;;;;;;5092407;28;20391;-60
2021/01/14 03:59:30;;;;;;;0.45;0.00;;;18.80;53.60;;;;;;5099636;28;20052;-61
2021/01/14 04:02:06;;;;;;;0.00;0.00;;;18.80;53.60;;;;;;5105447;28;20478;-60
2021/01/14 04:04:33;;;;;;;2.55;0.00;;;18.80;53.60;;;;;;5100328;28;20062;-59
2021/01/14 04:07:00;;;;;;;0.10;0.00;;;18.80;53.50;;;;;;5099029;28;20052;-60
2021/01/14 04:09:28;;;;;;;0.38;0.00;;;18.80;53.50;;;;;;5097286;28;20508;-60
2021/01/14 04:11:55;;;;;;;0.10;0.00;;;18.80;53.50;;;;;;5098680;28;20035;-59
2021/01/14 04:14:21;;;;;;;0.08;0.00;;;18.80;53.50;;;;;;5098010;28;20048;-59
2021/01/14 04:16:51;;;;;;;0.40;0.00;;;18.80;53.40;;;;;;5101516;28;20067;-60
2021/01/14 04:19:18;;;;;;;0.20;0.00;;;18.80;53.40;;;;;;5097713;28;20047;-58
2021/01/14 04:21:45;;;;;;;1.23;0.00;;;18.80;53.40;;;;;;5099639;28;20123;-59
2021/01/14 04:24:12;;;;;;;0.50;0.08;;;18.80;53.40;;;;;;5099468;28;20043;-60
2021/01/14 04:26:40;;;;;;;0.40;0.00;;;18.80;53.40;;;;;;5097868;28;20071;-59
2021/01/14 04:29:07;;;;;;;0.70;0.00;;;18.80;53.40;;;;;;5087226;28;20051;-61
2021/01/14 04:31:34;;;;;;;0.73;0.00;;;18.80;53.40;;;;;;5088459;28;20125;-60
2021/01/14 04:34:01;;;;;;;0.30;0.00;;;18.80;53.30;;;;;;5087865;28;20083;-61
2021/01/14 04:36:28;;;;;;;0.00;0.00;;;18.80;53.20;;;;;;5087485;28;20040;-60
2021/01/14 04:38:55;;;;;;;0.00;0.00;;;18.80;53.30;;;;;;5086776;28;20074;-59
2021/01/14 04:41:22;;;;;;;0.10;0.00;;;18.80;53.30;;;;;;5087160;28;20036;-60
2021/01/14 04:43:50;;;;;;;0.00;0.00;;;18.80;53.30;;;;;;5088410;28;20055;-60
2021/01/14 04:46:17;;;;;;;0.38;0.00;;;18.80;53.40;;;;;;5086812;28;20542;-60
2021/01/14 04:48:45;;;;;;;0.13;0.13;;;18.80;53.30;;;;;;5087123;28;20051;-60
2021/01/14 04:51:13;;;;;;;0.00;0.00;;;18.80;53.40;;;;;;5086821;28;20044;-60
2021/01/14 04:53:42;;;;;;;0.10;0.00;;;18.80;53.30;;;;;;5086984;28;20131;-59
2021/01/14 04:56:10;;;;;;;0.03;0.00;;;18.80;53.30;;;;;;5087695;28;20040;-59
2021/01/14 04:58:38;;;;;;;0.00;0.00;;;18.80;53.30;;;;;;5087934;28;20534;-59
2021/01/14 05:01:18;;;;;;;0.20;0.00;;;18.80;53.40;;;;;;5086130;28;20055;-60
2021/01/14 05:03:46;;;;;;;1.00;0.00;;;18.80;53.40;;;;;;5086389;28;20056;-60
2021/01/14 05:06:16;;;;;;;0.00;0.00;;;18.80;53.40;;;;;;5086535;28;20415;-59
2021/01/14 05:08:45;;;;;;;0.00;0.00;;;18.80;53.40;;;;;;5086937;28;20044;-60
2021/01/14 05:11:13;;;;;;;0.00;0.00;;;18.80;53.40;;;;;;5087077;28;20040;-59
2021/01/14 05:13:40;;;;;;;0.25;0.25;;;18.70;53.30;;;;;;5085613;28;20404;-60
2021/01/14 05:16:08;;;;;;;0.70;0.00;;;18.80;53.40;;;;;;5085829;28;20047;-60
2021/01/14 05:18:34;;;;;;;1.17;0.10;;;18.80;53.30;;;;;;5086117;28;20716;-61
2021/01/14 05:21:02;;;;;;;0.00;0.00;;;18.70;53.20;;;;;;5085402;28;20124;-61
2021/01/14 05:23:31;;;;;;;0.00;0.00;;;18.70;53.20;;;;;;5086245;28;20516;-60
2021/01/14 05:25:59;;;;;;;1.58;0.30;;;18.80;53.50;;;;;;5087897;28;20036;-59
2021/01/14 05:28:28;;;;;;;0.00;0.00;;;18.70;53.40;;;;;;5087066;28;20063;-59
2021/01/14 05:31:12;;;;;;;0.00;0.00;;;18.70;53.40;;;;;;5088720;28;20174;-61
2021/01/14 05:33:40;;;;;;;0.00;0.00;;;18.70;53.40;;;;;;5083788;28;20056;-58
2021/01/14 05:36:07;;;;;;;0.00;0.00;;;18.70;53.50;;;;;;5083894;28;20040;-60
2021/01/14 05:38:34;;;;;;;0.20;0.00;;;18.70;53.40;;;;;;5084329;28;20051;-59
2021/01/14 05:41:11;;;;;;;0.00;0.00;;;18.70;53.40;;;;;;5086580;28;20052;-60
2021/01/14 05:43:48;;;;;;;0.08;0.00;;;18.70;54.00;;;;;;5088911;28;20044;-59
2021/01/14 05:46:17;;;;;;;0.10;0.00;;;18.80;53.50;;;;;;5089762;28;20856;-59
2021/01/14 05:48:45;;;;;;;0.00;0.00;;;18.70;53.50;;;;;;5089992;28;20105;-59
2021/01/14 05:51:17;;;;;;;0.00;0.00;;;18.70;53.50;;;;;;5089590;28;20691;-59
2021/01/14 05:53:57;;;;;;;0.73;0.00;;;18.70;53.50;;;;;;5088795;28;20059;-59
2021/01/14 05:56:42;;;;;;;0.65;0.00;;;18.70;53.40;;;;;;5089908;28;20059;-60
2021/01/14 05:59:10;;;;;;;1.55;0.03;;;18.80;53.50;;;;;;5089324;28;20535;-60
2021/01/14 06:01:38;;;;;;;0.00;0.00;;;18.70;53.40;;;;;;5090364;28;20083;-60
2021/01/14 06:04:16;;;;;;;0.43;0.03;;;18.70;53.40;;;;;;5088254;28;20040;-60
2021/01/14 06:06:45;;;;;;;0.63;0.32;;;18.70;53.40;;;;;;5088369;28;20062;-60
2021/01/14 06:09:13;;;;;;;0.55;0.00;;;18.70;53.40;;;;;;5086624;28;20047;-61
2021/01/14 06:11:40;;;;;;;5.47;0.10;;;18.70;53.40;;;;;;5088995;28;20040;-60
2021/01/14 06:14:07;;;;;;;0.10;0.00;;;18.70;53.40;;;;;;5087888;28;20119;-60
2021/01/14 06:16:49;;;;;;;1.08;0.10;;;18.70;53.30;;;;;;5090045;28;20039;-60
2021/01/14 06:19:17;;;;;;;0.90;0.00;;;18.70;53.20;;;;;;5087767;28;20067;-61
2021/01/14 06:21:45;;;;;;;0.10;0.00;;;18.70;53.80;;;;;;5089268;28;20419;-60
2021/01/14 06:24:21;;;;;;;1.95;0.00;;;18.70;53.20;;;;;;5088754;28;20052;-60
2021/01/14 06:26:48;;;;;;;0.10;0.00;;;18.70;53.10;;;;;;5088678;28;20097;-60
2021/01/14 06:29:19;;;;;;;1.25;0.00;;;18.70;53.10;;;;;;5088261;28;20052;-59
2021/01/14 06:31:46;;;;;;;1.42;0.00;;;18.70;53.20;;;;;;5089350;28;20052;-60
2021/01/14 06:34:16;;;;;;;0.40;0.00;;;18.70;53.20;;;;;;5087913;28;20041;-58
2021/01/14 06:36:47;;;;;;;2.13;0.00;;;18.70;53.20;;;;;;5087292;28;20048;-60
2021/01/14 06:39:16;;;;;;;2.05;0.17;;;18.70;53.20;;;;;;5086241;28;20044;-60
2021/01/14 06:41:45;;;;;;;0.25;0.00;;;18.70;53.20;;;;;;5088433;28;20044;-59
2021/01/14 06:44:14;;;;;;;1.85;0.00;;;18.70;53.20;;;;;;5086329;28;20097;-59
2021/01/14 06:46:41;;;;;;;2.75;0.00;;;18.70;53.20;;;;;;5088677;28;20051;-60
2021/01/14 06:49:30;;;;;;;0.00;0.00;;;18.70;53.10;;;;;;5088120;28;20515;-59
2021/01/14 06:51:58;;;;;;;1.08;0.00;;;18.70;53.10;;;;;;5086603;28;20490;-59
2021/01/14 06:54:26;;;;;;;1.55;0.00;;;18.70;53.20;;;;;;5088129;28;20040;-59
2021/01/14 06:56:57;;;;;;;0.70;0.00;;;18.70;53.20;;;;;;5088235;28;20150;-60
2021/01/14 06:59:25;;;;;;;0.55;0.00;;;18.70;53.20;;;;;;5086226;28;20040;-60
2021/01/14 07:02:15;;;;;;;0.30;0.00;;;18.70;53.20;;;;;;5089628;28;20052;-59
2021/01/14 07:04:52;;;;;;;0.00;0.00;;;18.70;53.10;;;;;;5088554;28;20079;-60
2021/01/14 07:07:45;;;;;;;0.00;0.00;;;18.70;53.20;;;;;;5087584;28;20047;-59
2021/01/14 07:10:13;;;;;;;0.50;0.00;;;18.70;53.10;;;;;;5079158;28;20071;-60
2021/01/14 07:12:42;;;;;;;1.50;0.00;;;18.70;53.20;;;;;;5086943;28;20040;-59
2021/01/14 07:15:10;;;;;;;0.00;0.00;;;18.70;53.10;;;;;;5087412;28;20044;-59
2021/01/14 07:17:39;;;;;;;0.08;0.08;;;18.70;53.10;;;;;;5086979;28;20036;-61
2021/01/14 07:20:10;;;;;;;0.30;0.00;;;18.70;53.00;;;;;;5088427;28;20385;-60
2021/01/14 07:22:40;;;;;;;4.95;0.00;;;18.70;53.10;;;;;;5087738;28;20044;-60
2021/01/14 07:25:09;;;;;;;1.27;0.00;;;18.70;53.10;;;;;;5088320;28;20520;-59
2021/01/14 07:27:37;;;;;;;1.58;0.15;;;18.70;53.00;;;;;;5087045;28;20516;-61
2021/01/14 07:30:07;;;;;;;0.22;0.00;;;18.70;53.00;;;;;;5087853;28;20048;-60
2021/01/14 07:32:55;;;;;;;0.05;0.00;;;18.70;53.00;;;;;;5086003;28;20063;-60
2021/01/14 07:35:41;;;;;;;0.20;0.15;;;18.70;53.00;;;;;;5086534;28;20043;-60
2021/01/14 07:38:12;;;;;;;0.63;0.00;;;18.70;53.00;;;;;;5085814;28;20101;-60
2021/01/14 07:40:40;;;;;;;0.50;0.00;;;18.70;53.00;;;;;;5086737;28;20055;-59
2021/01/14 07:43:08;;;;;;;0.20;0.00;;;18.70;53.00;;;;;;5086959;28;20040;-60
2021/01/14 07:45:39;;;;;;;0.52;0.00;;;18.70;53.00;;;;;;5087081;28;20125;-60
2021/01/14 07:48:22;;;;;;;0.75;0.05;;;18.70;53.00;;;;;;5086921;28;20172;-61
2021/01/14 07:50:52;;;;;;;0.30;0.00;;;18.70;53.00;;;;;;5086421;28;20075;-60
2021/01/14 07:53:20;;;;;;;0.15;0.00;;;18.70;53.00;;;;;;5086922;28;20068;-60
2021/01/14 07:55:46;;;;;;;0.65;0.00;;;18.70;53.00;;;;;;5088668;28;20429;-60
2021/01/14 07:58:24;;;;;;;0.20;0.00;;;18.70;53.00;;;;;;5086181;28;20067;-59
2021/01/14 08:01:01;;;;;;;3.38;0.00;;;18.70;53.00;;;;;;5085566;28;20044;-61
2021/01/14 08:03:33;;;;;;;0.17;0.00;;;18.70;53.10;;;;;;5084934;28;20047;-60
2021/01/14 08:06:16;;;;;;;0.30;0.00;;;18.70;53.10;;;;;;5083898;28;20436;-61
2021/01/14 08:08:57;;;;;;;2.20;0.10;;;18.70;53.10;;;;;;5084759;28;20055;-60
2021/01/14 08:11:25;;;;;;;3.00;0.00;;;18.70;53.10;;;;;;5086397;28;20504;-60
2021/01/14 08:14:11;;;;;;;0.57;0.00;;;18.70;53.10;;;;;;5087248;28;20683;-60
2021/01/14 08:16:42;;;;;;;0.03;0.00;;;18.70;53.10;;;;;;5087720;28;20830;-60
2021/01/14 08:19:11;;;;;;;3.20;0.10;;;18.70;53.10;;;;;;5086197;28;20036;-60
2021/01/14 08:21:38;;;;;;;2.42;0.00;;;18.70;53.10;;;;;;5078715;28;20131;-60
2021/01/14 08:24:05;;;;;;;0.35;0.10;;;18.70;53.10;;;;;;5080238;28;20063;-60
2021/01/14 08:26:53;;;;;;;1.10;0.35;;;18.70;53.10;;;;;;5083806;28;20131;-60
2021/01/14 08:29:39;;;;;;;1.38;0.17;;;18.70;53.10;;;;;;5086717;28;20044;-59
2021/01/14 08:32:28;;;;;;;1.60;0.00;;;18.70;53.30;;;;;;5086976;28;20519;-60
2021/01/14 08:34:56;;;;;;;0.25;0.25;;;18.70;53.40;;;;;;5084448;28;20048;-60
2021/01/14 08:37:33;;;;;;;0.77;0.20;;;18.70;53.40;;;;;;5084847;28;20072;-59
2021/01/14 08:40:03;;;;;;;1.17;0.00;;;18.70;53.40;;;;;;5086440;28;20123;-59
2021/01/14 08:42:38;;;;;;;2.08;0.55;;;18.70;53.40;;;;;;5085930;28;20439;-60
2021/01/14 08:45:14;;;;;;;3.92;0.00;;;18.70;53.40;;;;;;5084987;28;20123;-60
2021/01/14 08:48:07;;;;;;;0.38;0.00;;;18.70;53.40;;;;;;5084428;28;20052;-59
2021/01/14 08:51:01;;;;;;;3.13;0.10;;;18.80;53.50;;;;;;5082192;28;20078;-59
2021/01/14 08:53:34;;;;;;;1.65;0.65;;;18.70;53.40;;;;;;5084530;28;20040;-59
2021/01/14 08:56:03;;;;;;;0.40;0.00;;;18.70;53.40;;;;;;5086686;28;20052;-60
2021/01/14 08:58:38;;;;;;;0.10;0.00;;;18.70;53.50;;;;;;5087652;28;20075;-59
2021/01/14 09:01:07;;;;;;;0.35;0.13;;;18.70;53.40;;;;;;5084945;28;20409;-59
2021/01/14 09:03:35;;;;;;;0.10;0.10;;;18.70;53.40;;;;;;5086053;28;20048;-59
2021/01/14 09:06:02;;;;;;;0.43;0.10;;;18.70;53.40;;;;;;5090054;28;20048;-60
2021/01/14 09:08:29;;;;;;;0.10;0.00;;;18.70;53.30;;;;;;5090526;28;20067;-59
2021/01/14 09:10:59;;;;;;;0.43;0.00;;;18.70;53.30;;;;;;5088056;28;20261;-58
2021/01/14 09:13:28;;;;;;;0.80;0.00;;;18.70;53.30;;;;;;5091410;28;20139;-60
2021/01/14 09:15:56;;;;;;;2.63;0.30;;;18.70;53.20;;;;;;5089987;28;20146;-59
2021/01/14 09:18:31;;;;;;;1.55;0.43;;;18.70;53.20;;;;;;5090128;28;20131;-59
2021/01/14 09:20:58;;;;;;;0.20;0.00;;;18.80;53.30;;;;;;5090189;28;20036;-59
2021/01/14 09:23:27;;;;;;;0.00;0.00;;;18.80;53.20;;;;;;5089395;28;20055;-59
2021/01/14 09:25:55;;;;;;;0.20;0.10;;;18.70;53.20;;;;;;5091316;28;20052;-59
2021/01/14 09:28:27;;;;;;;1.33;0.00;;;18.70;53.20;;;;;;5090609;28;20577;-58
2021/01/14 09:30:56;;;;;;;2.08;0.05;;;18.80;53.20;;;;;;5090088;28;20404;-59
2021/01/14 09:33:24;;;;;;;0.65;0.03;;;18.70;53.20;;;;;;5088946;28;20136;-58
2021/01/14 09:36:02;;;;;;;0.00;0.00;;;18.80;53.30;;;;;;5091895;28;20059;-58
2021/01/14 09:38:30;;;;;;;0.63;0.00;;;18.80;53.30;;;;;;5097367;28;20044;-60
2021/01/14 09:40:57;;;;;;;2.45;0.00;;;18.80;53.30;;;;;;5081347;28;20045;-60
2021/01/14 09:43:25;;;;;;;0.85;0.00;;;18.80;53.40;;;;;;5079587;28;20055;-58
2021/01/14 09:45:53;;;;;;;0.10;0.00;;;18.70;53.30;;;;;;5082607;28;20523;-59
2021/01/14 09:48:21;;;;;;;0.00;0.00;;;18.80;53.40;;;;;;5079157;28;20100;-59
2021/01/14 09:50:50;;;;;;;1.30;0.00;;;18.80;53.40;;;;;;5088345;28;20038;-60
2021/01/14 09:53:17;;;;;;;1.45;0.00;;;18.80;53.30;;;;;;5085610;28;20472;-60
2021/01/14 09:55:44;;;;;;;0.00;0.00;;;18.80;53.20;;;;;;5084590;28;20550;-59
2021/01/14 09:58:18;;;;;;;0.47;0.00;;;18.80;53.20;;;;;;5086480;28;20052;-59
2021/01/14 10:00:46;;;;;;;0.00;0.00;;;18.80;53.10;;;;;;5089413;28;20122;-59
2021/01/14 10:03:17;;;;;;;0.10;0.00;;;18.80;53.20;;;;;;5085923;28;20047;-60
2021/01/14 10:05:45;;;;;;;0.28;0.00;;;18.80;53.20;;;;;;5084292;28;20093;-59
2021/01/14 10:08:16;;;;;;;1.17;0.40;;;18.80;53.30;;;;;;5082619;28;20052;-60
2021/01/14 10:10:43;;;;;;;1.98;0.08;;;18.80;53.30;;;;;;5101545;28;20051;-59
2021/01/14 10:13:13;;;;;;;0.00;0.00;;;18.80;53.30;;;;;;5098096;28;20050;-62
2021/01/14 10:15:40;;;;;;;1.35;0.00;;;18.90;53.40;;;;;;5091038;28;20040;-60
2021/01/14 10:18:08;;;;;;;0.30;0.10;;;18.80;53.40;;;;;;5088911;28;20040;-59
2021/01/14 10:20:35;;;;;;;0.65;0.22;;;18.80;53.50;;;;;;5088117;28;20083;-59
2021/01/14 10:23:02;;;;;;;2.63;0.30;;;18.80;54.10;;;;;;5086376;28;20084;-61
2021/01/14 10:25:28;;;;;;;0.55;0.55;;;18.80;53.50;;;;;;5088583;28;20055;-60
2021/01/14 10:27:59;;;;;;;3.65;0.90;;;18.80;53.50;;;;;;5087692;28;20044;-59
2021/01/14 10:30:27;;;;;;;0.60;0.47;;;18.90;53.60;;;;;;5088532;28;20056;-59
2021/01/14 10:33:01;;;;;;;4.60;0.63;;;18.90;53.60;;;;;;5083379;28;20482;-59
2021/01/14 10:35:29;;;;;;;2.05;0.20;;;18.90;53.50;;;;;;5086498;28;20157;-60
2021/01/14 10:38:04;;;;;;;4.28;0.43;;;18.90;53.40;;;;;;5089464;28;20096;-60
2021/01/14 10:40:40;;;;;;;1.33;0.32;;;18.90;53.30;;;;;;5089693;28;20060;-60
2021/01/14 10:43:08;;;;;;;4.53;0.60;;;18.90;53.30;;;;;;5088324;28;20059;-60
2021/01/14 10:45:36;;;;;;;1.30;0.50;;;18.80;53.30;;;;;;5088056;28;20063;-59
2021/01/14 10:48:12;;;;;;;1.85;0.28;;;18.80;53.30;;;;;;5087037;28;20036;-59
2021/01/14 10:50:46;;;;;;;1.02;0.38;;;18.90;53.40;;;;;;5088049;28;20056;-60
2021/01/14 10:53:24;;;;;;;0.85;0.40;;;18.90;53.40;;;;;;5087875;28;20044;-60
2021/01/14 10:56:04;;;;;;;0.40;0.40;;;18.90;53.40;;;;;;5088537;28;20056;-59
2021/01/14 10:58:31;;;;;;;2.00;0.32;;;18.90;53.40;;;;;;5089531;28;20052;-58
2021/01/14 11:00:58;;;;;;;0.43;0.43;;;18.80;53.40;;;;;;5088557;28;20044;-59
2021/01/14 11:03:26;;;;;;;1.15;0.20;;;18.80;53.40;;;;;;5087590;28;20040;-59
2021/01/14 11:05:54;;;;;;;0.40;0.30;;;18.80;53.40;;;;;;5088482;28;20050;-59
2021/01/14 11:08:23;;;;;;;2.75;0.30;;;18.90;53.40;;;;;;5087881;28;20048;-59
2021/01/14 11:11:02;;;;;;;1.50;0.60;;;18.80;53.40;;;;;;5089723;28;20096;-59
2021/01/14 11:13:37;;;;;;;1.63;0.20;;;18.90;53.40;;;;;;5088396;28;20048;-59
2021/01/14 11:16:04;;;;;;;0.30;0.30;;;18.90;53.60;;;;;;5087841;28;20381;-59
2021/01/14 11:18:35;;;;;;;0.35;0.30;;;18.80;53.40;;;;;;5087326;28;20070;-60
2021/01/14 11:21:02;;;;;;;0.52;0.30;;;18.80;53.50;;;;;;5088094;28;20121;-60
2021/01/14 11:23:31;;;;;;;0.82;0.30;;;18.80;53.50;;;;;;5087209;28;20062;-60
2021/01/14 11:26:01;;;;;;;0.20;0.20;;;18.90;53.60;;;;;;5100720;28;20819;-60
2021/01/14 11:28:29;;;;;;;0.30;0.30;;;18.80;53.50;;;;;;5101387;28;20039;-60
2021/01/14 11:30:56;;;;;;;0.57;0.52;;;18.80;53.50;;;;;;5099489;28;20122;-59
2021/01/14 11:33:22;;;;;;;0.43;0.43;;;18.80;53.60;;;;;;5097182;28;20056;-60
2021/01/14 11:35:50;;;;;;;0.20;0.20;;;18.90;53.60;;;;;;5099849;28;20046;-60
2021/01/14 11:38:18;;;;;;;1.85;0.20;;;18.80;53.60;;;;;;5100619;28;20044;-60
2021/01/14 11:40:47;;;;;;;1.15;0.20;;;18.80;53.60;;;;;;5103959;28;20581;-61
2021/01/14 11:43:15;;;;;;;0.60;0.60;;;18.90;53.70;;;;;;5099397;28;20088;-60
2021/01/14 11:45:42;;;;;;;1.30;0.40;;;18.90;53.70;;;;;;5100720;28;20064;-62
2021/01/14 11:48:09;;;;;;;1.23;0.32;;;18.90;53.70;;;;;;5096994;28;20044;-59
2021/01/14 11:50:36;;;;;;;0.40;0.20;;;18.90;53.80;;;;;;5096274;28;20105;-59
2021/01/14 11:53:03;;;;;;;0.57;0.57;;;18.90;53.80;;;;;;5102502;28;20671;-59
2021/01/14 11:55:30;;;;;;;1.65;0.60;;;18.90;53.80;;;;;;5096248;28;20113;-61
2021/01/14 11:57:58;;;;;;;0.20;0.20;;;18.90;53.80;;;;;;5086504;28;20048;-59
2021/01/14 12:00:26;;;;;;;2.72;0.35;;;18.90;53.70;;;;;;5086994;28;20044;-60
2021/01/14 12:02:53;;;;;;;0.80;0.32;;;18.90;53.80;;;;;;5086929;28;20144;-59
2021/01/14 12:05:19;;;;;;;0.30;0.30;;;18.90;53.80;;;;;;5086776;28;20054;-59
2021/01/14 12:07:46;;;;;;;0.95;0.30;;;18.90;53.80;;;;;;5087906;28;20048;-60
2021/01/14 12:10:13;;;;;;;0.57;0.22;;;18.90;53.80;;;;;;5086845;28;20512;-60
2021/01/14 12:12:40;;;;;;;3.10;0.45;;;18.90;53.90;;;;;;5086384;28;20101;-60
2021/01/14 12:15:09;;;;;;;1.30;0.45;;;18.90;53.90;;;;;;5086728;28;20048;-60
2021/01/14 12:17:36;;;;;;;2.95;0.63;;;18.90;54.00;;;;;;5085343;28;20059;-60
2021/01/14 12:20:04;;;;;;;0.57;0.57;;;18.90;54.00;;;;;;5087070;28;20414;-60
2021/01/14 12:22:32;;;;;;;0.95;0.30;;;18.90;54.00;;;;;;5085524;28;20137;-61
2021/01/14 12:24:58;;;;;;;0.57;0.30;;;18.90;53.90;;;;;;5087373;28;20048;-60
2021/01/14 12:27:25;;;;;;;0.55;0.50;;;19.00;54.00;;;;;;5084436;28;20051;-60
2021/01/14 12:29:53;;;;;;;0.35;0.25;;;19.00;53.90;;;;;;5086677;28;20048;-60
2021/01/14 12:32:20;;;;;;;1.13;0.90;;;18.90;53.90;;;;;;5085990;28;20067;-59
2021/01/14 12:34:47;;;;;;;0.40;0.30;;;19.00;53.90;;;;;;5087129;28;20043;-59
2021/01/14 12:37:13;;;;;;;1.75;1.25;;;19.00;53.90;;;;;;5085377;28;20048;-59
2021/01/14 12:39:40;;;;;;;1.80;0.60;;;19.00;54.00;;;;;;5086728;28;20044;-59
2021/01/14 12:42:09;;;;;;;2.60;0.88;;;18.90;54.00;;;;;;5090850;28;20042;-59
2021/01/14 12:44:37;;;;;;;3.03;0.60;;;19.00;54.10;;;;;;5090787;28;20566;-60
2021/01/14 12:47:04;;;;;;;0.60;0.60;;;19.00;54.10;;;;;;5090941;28;20045;-60
2021/01/14 12:49:31;;;;;;;1.10;0.90;;;19.00;54.10;;;;;;5091568;28;20620;-60
2021/01/14 12:51:58;;;;;;;0.70;0.50;;;19.00;54.00;;;;;;5089852;28;20451;-59
2021/01/14 12:54:25;;;;;;;0.88;0.88;;;18.90;53.90;;;;;;5090728;28;20036;-61
2021/01/14 12:56:51;;;;;;;0.95;0.95;;;19.00;54.00;;;;;;5090357;28;20044;-60
2021/01/14 12:59:18;;;;;;;0.70;0.70;;;18.90;54.00;;;;;;5090754;28;20127;-60
2021/01/14 13:01:45;;;;;;;68.30;26.90;;;19.00;54.00;;;;;;5092097;28;20055;-60